createdAt,value
2019-01-24T00:01:50.075Z,85.33
2019-01-24T00:04:16.883Z,85.39
2019-01-24T00:06:43.090Z,85.52
2019-01-24T00:09:09.230Z,85.68
2019-01-24T00:11:37.862Z,85.55
2019-01-24T00:14:04.098Z,85.63
2019-01-24T00:16:32.695Z,85.25
2019-01-24T00:18:58.553Z,85.25
2019-01-24T00:21:24.687Z,86.10
2019-01-24T00:23:50.480Z,86.23
2019-01-24T00:26:16.337Z,85.74
2019-01-24T00:28:42.211Z,86.13
2019-01-24T00:31:08.018Z,86.25
2019-01-24T00:33:39.603Z,85.85
2019-01-24T00:36:05.697Z,85.50
2019-01-24T00:38:31.534Z,85.21
2019-01-24T00:40:57.385Z,85.58
2019-01-24T00:43:29.004Z,85.97
2019-01-24T00:45:54.857Z,85.67
2019-01-24T00:48:23.701Z,85.74
2019-01-24T00:50:49.982Z,85.59
2019-01-24T00:53:15.816Z,85.48
2019-01-24T00:55:41.670Z,85.56
2019-01-24T00:58:07.496Z,85.34
2019-01-24T01:00:33.406Z,85.23
2019-01-24T01:02:59.247Z,85.16
2019-01-24T01:05:28.373Z,85.09
2019-01-24T01:07:54.217Z,85.09
2019-01-24T01:10:23.107Z,85.31
2019-01-24T01:12:49.303Z,85.41
2019-01-24T01:15:18.229Z,85.35
2019-01-24T01:17:45.032Z,85.37
2019-01-24T01:20:19.150Z,85.77
2019-01-24T01:22:45.395Z,85.75
2019-01-24T01:25:11.719Z,86.26
2019-01-24T01:27:37.641Z,86.29
2019-01-24T01:30:07.273Z,86.58
2019-01-24T01:32:33.220Z,86.47
2019-01-24T01:34:59.065Z,86.39
2019-01-24T01:37:25.164Z,86.23
2019-01-24T01:39:51.264Z,86.20
2019-01-24T01:42:17.206Z,85.87
2019-01-24T01:44:43.021Z,85.54
2019-01-24T01:47:08.832Z,85.58
2019-01-24T01:49:34.938Z,85.65
2019-01-24T01:52:04.063Z,86.08
2019-01-24T01:54:29.909Z,86.28
2019-01-24T01:56:56.975Z,85.94
2019-01-24T01:59:22.813Z,85.82
2019-01-24T02:01:51.996Z,86.07
2019-01-24T02:04:17.834Z,86.43
2019-01-24T02:06:48.841Z,86.20
2019-01-24T02:09:14.675Z,86.17
2019-01-24T02:11:40.502Z,85.82
2019-01-24T02:14:06.353Z,85.54
2019-01-24T02:16:32.211Z,85.16
2019-01-24T02:18:58.062Z,85.00
2019-01-24T02:21:24.224Z,84.90
2019-01-24T02:23:53.339Z,84.85
2019-01-24T02:26:19.442Z,85.08
2019-01-24T02:28:47.745Z,85.16
2019-01-24T02:31:13.883Z,85.00
2019-01-24T02:33:44.671Z,85.40
2019-01-24T02:36:10.741Z,85.45
2019-01-24T02:38:39.592Z,85.54
2019-01-24T02:41:05.406Z,85.37
2019-01-24T02:43:34.103Z,85.44
2019-01-24T02:45:59.930Z,85.55
2019-01-24T02:48:25.861Z,85.40
2019-01-24T02:50:51.685Z,85.59
2019-01-24T02:53:17.555Z,85.59
2019-01-24T02:55:43.357Z,85.60
2019-01-24T02:58:09.198Z,85.38
2019-01-24T03:00:39.775Z,85.48
2019-01-24T03:03:05.576Z,85.55
2019-01-24T03:05:34.446Z,85.94
2019-01-24T03:08:00.283Z,86.05
2019-01-24T03:10:29.137Z,86.42
2019-01-24T03:12:54.961Z,86.54
2019-01-24T03:15:23.830Z,86.04
2019-01-24T03:17:50.041Z,86.15
2019-01-24T03:20:17.387Z,86.27
2019-01-24T03:22:43.719Z,86.55
2019-01-24T03:25:11.734Z,86.57
2019-01-24T03:27:37.594Z,86.21
2019-01-24T03:30:06.823Z,86.02
2019-01-24T03:32:32.625Z,86.05
2019-01-24T03:35:04.108Z,86.08
2019-01-24T03:37:26.195Z,85.48
2019-01-24T03:39:52.300Z,85.52
2019-01-24T03:42:18.501Z,85.64
2019-01-24T03:44:44.635Z,86.00
2019-01-24T03:47:13.512Z,85.93
2019-01-24T03:49:39.323Z,85.97
2019-01-24T03:52:08.212Z,85.43
2019-01-24T03:54:34.038Z,85.85
2019-01-24T03:57:02.984Z,86.09
2019-01-24T03:59:29.185Z,86.54
2019-01-24T04:01:55.023Z,86.91
2019-01-24T04:04:21.161Z,87.35
2019-01-24T04:06:46.976Z,87.67
2019-01-24T04:09:13.918Z,87.91
2019-01-24T04:11:40.012Z,87.43
2019-01-24T04:14:08.953Z,86.91
2019-01-24T04:16:34.806Z,86.58
2019-01-24T04:19:03.480Z,86.35
2019-01-24T04:21:29.339Z,86.23
2019-01-24T04:23:58.699Z,86.24
2019-01-24T04:26:24.557Z,86.23
2019-01-24T04:28:55.342Z,86.05
2019-01-24T04:31:21.157Z,86.16
2019-01-24T04:33:49.771Z,85.87
2019-01-24T04:36:15.587Z,86.07
2019-01-24T04:38:41.468Z,86.30
2019-01-24T04:41:07.577Z,86.60
2019-01-24T04:43:33.384Z,86.62
2019-01-24T04:45:59.356Z,87.06
2019-01-24T04:48:25.175Z,86.96
2019-01-24T04:50:54.122Z,86.99
2019-01-24T04:53:19.981Z,86.88
2019-01-24T04:55:50.386Z,86.73
2019-01-24T04:58:16.453Z,86.70
2019-01-24T05:00:43.496Z,86.56
2019-01-24T05:03:09.309Z,86.77
2019-01-24T05:05:38.025Z,86.70
2019-01-24T05:08:04.225Z,87.20
2019-01-24T05:10:32.845Z,87.80
2019-01-24T05:12:58.658Z,87.74
2019-01-24T05:15:24.815Z,87.30
2019-01-24T05:17:50.627Z,87.17
2019-01-24T05:20:16.873Z,86.82
2019-01-24T05:22:45.735Z,86.97
2019-01-24T05:25:14.048Z,86.82
2019-01-24T05:27:39.885Z,86.85
2019-01-24T05:30:09.566Z,86.50
2019-01-24T05:32:35.424Z,86.78
2019-01-24T05:35:01.272Z,86.95
2019-01-24T05:37:30.219Z,86.75
2019-01-24T05:39:56.049Z,86.87
2019-01-24T05:42:24.779Z,86.95
2019-01-24T05:44:50.659Z,86.86
2019-01-24T05:47:18.490Z,86.93
2019-01-24T05:49:44.335Z,86.68
2019-01-24T05:52:10.130Z,86.74
2019-01-24T05:54:35.932Z,86.70
2019-01-24T05:57:02.062Z,86.70
2019-01-24T05:59:30.642Z,87.08
2019-01-24T06:01:56.857Z,86.70
2019-01-24T06:04:25.575Z,86.41
2019-01-24T06:06:51.419Z,87.24
2019-01-24T06:09:20.091Z,87.38
2019-01-24T06:11:46.032Z,87.31
2019-01-24T06:14:14.679Z,87.49
2019-01-24T06:16:40.488Z,86.79
2019-01-24T06:19:09.438Z,86.73
2019-01-24T06:21:35.369Z,86.50
2019-01-24T06:24:04.049Z,86.11
2019-01-24T06:26:30.154Z,86.11
2019-01-24T06:28:55.968Z,85.58
2019-01-24T06:31:21.796Z,85.29
2019-01-24T06:33:47.902Z,85.33
2019-01-24T06:36:16.781Z,85.07
2019-01-24T06:38:42.877Z,85.04
2019-01-24T06:41:10.025Z,84.97
2019-01-24T06:43:35.859Z,84.89
2019-01-24T06:46:06.754Z,84.67
2019-01-24T06:48:32.855Z,84.97
2019-01-24T06:51:01.454Z,85.05
2019-01-24T06:53:27.285Z,85.10
2019-01-24T06:55:56.209Z,85.22
2019-01-24T06:58:22.080Z,85.29
2019-01-24T07:00:50.952Z,85.31
2019-01-24T07:03:17.042Z,85.31
2019-01-24T07:05:43.139Z,85.71
2019-01-24T07:08:09.209Z,85.80
2019-01-24T07:10:35.269Z,86.18
2019-01-24T07:13:01.118Z,86.34
2019-01-24T07:15:26.943Z,86.37
2019-01-24T07:17:55.827Z,86.02
2019-01-24T07:20:21.714Z,85.96
2019-01-24T07:22:50.570Z,86.07
2019-01-24T07:25:25.299Z,86.04
2019-01-24T07:27:51.135Z,85.77
2019-01-24T07:30:18.255Z,85.54
2019-01-24T07:32:44.187Z,85.52
2019-01-24T07:35:12.009Z,85.91
2019-01-24T07:37:38.149Z,86.12
2019-01-24T07:40:07.499Z,86.02
2019-01-24T07:42:33.358Z,86.23
2019-01-24T07:44:59.173Z,86.45
2019-01-24T07:47:25.304Z,86.26
2019-01-24T07:49:51.472Z,85.85
2019-01-24T07:52:17.295Z,85.61
2019-01-24T07:54:43.448Z,85.38
2019-01-24T07:57:09.281Z,85.89
2019-01-24T07:59:35.421Z,86.46
2019-01-24T08:02:01.273Z,85.92
2019-01-24T08:04:29.884Z,85.63
2019-01-24T08:06:55.678Z,85.07
2019-01-24T08:09:25.263Z,85.22
2019-01-24T08:11:51.104Z,85.43
2019-01-24T08:14:21.828Z,85.11
2019-01-24T08:16:47.643Z,84.93
2019-01-24T08:19:13.490Z,84.48
2019-01-24T08:21:39.320Z,84.39
2019-01-24T08:24:05.164Z,84.51
2019-01-24T08:26:34.081Z,84.72
2019-01-24T08:29:00.028Z,84.06
2019-01-24T08:31:25.841Z,83.96
2019-01-24T08:33:51.953Z,84.28
2019-01-24T08:36:20.528Z,84.14
2019-01-24T08:38:46.339Z,84.56
2019-01-24T08:41:15.459Z,84.33
2019-01-24T08:43:41.308Z,84.31
2019-01-24T08:46:09.931Z,84.20
2019-01-24T08:48:35.730Z,84.10
2019-01-24T08:51:04.610Z,84.07
2019-01-24T08:53:30.725Z,83.77
2019-01-24T08:55:56.585Z,83.62
2019-01-24T08:58:22.398Z,83.62
2019-01-24T09:00:48.527Z,83.40
2019-01-24T09:03:17.224Z,83.96
2019-01-24T09:05:43.048Z,83.33
2019-01-24T09:08:11.910Z,82.71
2019-01-24T09:10:38.342Z,82.86
2019-01-24T09:13:06.957Z,83.15
2019-01-24T09:15:33.151Z,82.53
2019-01-24T09:18:02.431Z,82.15
2019-01-24T09:20:28.657Z,82.29
2019-01-24T09:22:57.269Z,82.89
2019-01-24T09:25:23.110Z,83.47
2019-01-24T09:27:50.243Z,83.19
2019-01-24T09:30:21.950Z,82.76
2019-01-24T09:32:48.040Z,81.96
2019-01-24T09:35:14.272Z,82.11
2019-01-24T09:37:40.105Z,81.06
2019-01-24T09:40:12.735Z,80.48
2019-01-24T09:42:38.941Z,79.80
2019-01-24T09:45:08.501Z,79.11
2019-01-24T09:47:34.576Z,79.03
2019-01-24T09:50:00.414Z,78.80
2019-01-24T09:52:26.485Z,79.28
2019-01-24T09:54:52.330Z,79.23
2019-01-24T09:57:18.179Z,79.88
2019-01-24T09:59:44.247Z,79.17
2019-01-24T10:02:10.064Z,78.31
2019-01-24T10:04:36.172Z,78.52
2019-01-24T10:07:02.051Z,77.99
2019-01-24T10:09:27.855Z,76.83
2019-01-24T10:11:53.697Z,77.73
2019-01-24T10:14:19.516Z,77.27
2019-01-24T10:16:48.123Z,77.36
2019-01-24T10:19:13.929Z,76.73
2019-01-24T10:21:42.568Z,77.96
2019-01-24T10:24:08.688Z,78.35
2019-01-24T10:26:37.557Z,78.46
2019-01-24T10:29:03.441Z,78.22
2019-01-24T10:31:33.384Z,78.01
2019-01-24T10:33:59.181Z,77.36
2019-01-24T10:36:26.541Z,78.15
2019-01-24T10:38:52.671Z,78.37
2019-01-24T10:41:21.381Z,78.46
2019-01-24T10:43:47.463Z,79.29
2019-01-24T10:46:13.539Z,79.55
2019-01-24T10:48:39.394Z,79.58
2019-01-24T10:51:05.393Z,79.73
2019-01-24T10:53:32.634Z,78.94
2019-01-24T10:55:58.495Z,80.64
2019-01-24T10:58:29.017Z,80.82
2019-01-24T11:00:54.821Z,80.22
2019-01-24T11:03:21.942Z,79.21
2019-01-24T11:05:47.870Z,79.58
2019-01-24T11:08:17.075Z,79.85
2019-01-24T11:10:43.011Z,79.05
2019-01-24T11:13:12.030Z,79.31
2019-01-24T11:15:37.899Z,78.96
2019-01-24T11:18:06.630Z,78.66
2019-01-24T11:20:32.430Z,78.44
2019-01-24T11:22:58.273Z,78.39
2019-01-24T11:25:25.425Z,77.98
2019-01-24T11:27:51.331Z,76.92
2019-01-24T11:30:24.010Z,77.38
2019-01-24T11:32:50.266Z,76.84
2019-01-24T11:35:18.419Z,77.48
2019-01-24T11:37:44.345Z,78.33
2019-01-24T11:40:16.520Z,78.47
2019-01-24T11:42:42.445Z,78.44
2019-01-24T11:45:10.821Z,78.29
2019-01-24T11:47:36.911Z,78.78
2019-01-24T11:50:06.510Z,79.49
2019-01-24T11:52:32.668Z,78.94
2019-01-24T11:54:58.486Z,79.03
2019-01-24T11:57:24.289Z,78.94
2019-01-24T11:59:50.149Z,79.13
2019-01-24T12:02:15.964Z,80.25
2019-01-24T12:04:41.802Z,80.29
2019-01-24T12:07:07.623Z,79.16
2019-01-24T12:09:33.469Z,79.12
2019-01-24T12:11:59.616Z,78.67
2019-01-24T12:14:25.469Z,78.96
2019-01-24T12:16:52.314Z,78.82
2019-01-24T12:19:18.430Z,79.87
2019-01-24T12:21:47.545Z,80.22
2019-01-24T12:24:13.355Z,80.77
2019-01-24T12:26:42.500Z,80.63
2019-01-24T12:29:08.608Z,81.59
2019-01-24T12:31:36.609Z,81.56
2019-01-24T12:34:02.792Z,81.83
2019-01-24T12:36:28.596Z,81.57
2019-01-24T12:38:54.554Z,80.98
2019-01-24T12:41:20.412Z,80.82
2019-01-24T12:43:48.988Z,81.10
2019-01-24T12:46:14.791Z,81.11
2019-01-24T12:51:11.226Z,80.75
2019-01-24T12:53:40.230Z,80.25
2019-01-24T12:56:06.175Z,80.58
2019-01-24T12:58:32.538Z,81.20
2019-01-24T13:00:58.520Z,81.41
2019-01-24T13:03:27.422Z,81.73
2019-01-24T13:05:53.247Z,81.08
2019-01-24T13:08:22.235Z,81.40
2019-01-24T13:10:48.096Z,81.24
2019-01-24T13:13:14.036Z,81.42
2019-01-24T13:15:40.053Z,81.65
2019-01-24T13:18:05.894Z,80.76
2019-01-24T13:20:34.677Z,80.47
2019-01-24T13:23:00.906Z,80.63
2019-01-24T13:25:31.352Z,80.23
2019-01-24T13:27:57.293Z,79.44
2019-01-24T13:30:26.241Z,79.19
2019-01-24T13:32:52.061Z,79.19
2019-01-24T13:35:18.009Z,78.65
2019-01-24T13:37:43.848Z,79.50
2019-01-24T13:40:15.862Z,80.01
2019-01-24T13:42:41.986Z,80.25
2019-01-24T13:45:16.910Z,79.66
2019-01-24T13:47:42.833Z,79.58
2019-01-24T13:50:11.566Z,79.85
2019-01-24T13:52:37.413Z,80.34
2019-01-24T13:55:03.635Z,79.78
2019-01-24T13:57:29.462Z,79.86
2019-01-24T13:59:55.607Z,80.60
2019-01-24T14:02:21.667Z,80.70
2019-01-24T14:04:47.463Z,80.55
2019-01-24T14:07:13.327Z,81.54
2019-01-24T14:09:39.143Z,82.09
2019-01-24T14:12:05.389Z,82.07
2019-01-24T14:14:31.194Z,81.02
2019-01-24T14:17:00.240Z,80.09
2019-01-24T14:19:26.367Z,81.42
2019-01-24T14:21:55.429Z,81.72
2019-01-24T14:24:21.235Z,81.75
2019-01-24T14:26:47.088Z,81.68
2019-01-24T14:29:12.986Z,82.17
2019-01-24T14:31:38.824Z,82.28
2019-01-24T14:34:04.879Z,81.95
2019-01-24T14:36:30.954Z,81.96
2019-01-24T14:38:59.869Z,82.13
2019-01-24T14:41:25.709Z,82.20
2019-01-24T14:43:54.282Z,82.89
2019-01-24T14:46:20.450Z,83.06
2019-01-24T14:48:48.797Z,83.45
2019-01-24T14:51:14.626Z,83.24
2019-01-24T14:53:43.810Z,82.88
2019-01-24T14:56:09.933Z,82.45
2019-01-24T14:58:38.614Z,82.02
2019-01-24T15:01:05.456Z,81.53
2019-01-24T15:03:31.303Z,81.50
2019-01-24T15:05:57.105Z,81.92
2019-01-24T15:08:22.940Z,82.13
2019-01-24T15:10:52.211Z,82.55
2019-01-24T15:13:18.029Z,82.53
2019-01-24T15:15:47.190Z,82.97
2019-01-24T15:18:13.279Z,82.52
2019-01-24T15:20:39.486Z,82.80
2019-01-24T15:23:05.354Z,82.87
2019-01-24T15:25:36.262Z,83.25
2019-01-24T15:28:02.090Z,83.58
2019-01-24T15:30:30.921Z,83.48
2019-01-24T15:32:57.138Z,83.33
2019-01-24T15:35:26.152Z,83.34
2019-01-24T15:37:54.711Z,83.34
2019-01-24T15:40:22.428Z,83.98
2019-01-24T15:42:48.239Z,84.44
2019-01-24T15:45:15.587Z,84.65
2019-01-24T15:47:41.814Z,84.26
2019-01-24T15:50:10.746Z,84.39
2019-01-24T15:52:36.625Z,85.12
2019-01-24T15:55:04.272Z,84.99
2019-01-24T15:57:30.085Z,84.90
2019-01-24T15:59:55.944Z,84.44
2019-01-24T16:02:21.765Z,84.56
2019-01-24T16:04:47.580Z,84.88
2019-01-24T16:07:14.918Z,84.77
2019-01-24T16:09:40.733Z,84.83
2019-01-24T16:12:09.639Z,84.89
2019-01-24T16:14:35.766Z,85.77
2019-01-24T16:17:01.585Z,86.14
2019-01-24T16:19:27.425Z,86.09
2019-01-24T16:21:53.529Z,85.94
2019-01-24T16:24:22.465Z,85.63
2019-01-24T16:26:48.294Z,85.81
2019-01-24T16:29:17.370Z,86.06
2019-01-24T16:31:43.199Z,86.02
2019-01-24T16:34:12.200Z,85.80
2019-01-24T16:36:38.347Z,86.16
2019-01-24T16:39:06.331Z,86.16
2019-01-24T16:41:32.142Z,86.25
2019-01-24T16:43:59.427Z,86.11
2019-01-24T16:46:25.265Z,86.12
2019-01-24T16:48:55.678Z,85.68
2019-01-24T16:51:21.728Z,85.85
2019-01-24T16:53:47.915Z,85.76
2019-01-24T16:56:13.801Z,85.39
2019-01-24T16:58:39.710Z,85.35
2019-01-24T17:01:05.726Z,85.46
2019-01-24T17:03:31.550Z,85.59
2019-01-24T17:06:00.468Z,85.79
2019-01-24T17:08:26.278Z,85.99
2019-01-24T17:10:55.197Z,86.26
2019-01-24T17:13:21.416Z,86.52
2019-01-24T17:15:50.289Z,86.85
2019-01-24T17:18:16.101Z,86.78
2019-01-24T17:20:44.930Z,87.03
2019-01-24T17:23:11.034Z,87.13
2019-01-24T17:25:39.647Z,87.54
2019-01-24T17:28:05.711Z,88.03
2019-01-24T17:30:31.921Z,88.44
2019-01-24T17:32:58.058Z,88.76
2019-01-24T17:35:24.102Z,88.19
2019-01-24T17:37:53.141Z,88.03
2019-01-24T17:40:34.767Z,88.40
2019-01-24T17:43:00.868Z,88.36
2019-01-24T17:45:27.353Z,87.98
2019-01-24T17:47:53.250Z,87.84
2019-01-24T17:50:19.506Z,87.85
2019-01-24T17:52:45.331Z,87.35
2019-01-24T17:55:37.334Z,87.17
2019-01-24T17:58:04.843Z,87.02
2019-01-24T18:00:32.860Z,87.72
2019-01-24T18:02:58.735Z,87.51
2019-01-24T18:05:24.629Z,87.57
2019-01-24T18:07:50.771Z,86.87
2019-01-24T18:10:24.864Z,86.88
2019-01-24T18:12:50.990Z,87.01
2019-01-24T18:15:22.255Z,86.50
2019-01-24T18:17:48.108Z,86.35
2019-01-24T18:20:18.284Z,86.87
2019-01-24T18:22:44.283Z,87.50
2019-01-24T18:25:10.161Z,87.17
2019-01-24T18:27:36.223Z,86.87
2019-01-24T18:30:05.159Z,86.53
2019-01-24T18:32:30.975Z,86.48
2019-01-24T18:34:57.153Z,86.74
2019-01-24T18:37:23.002Z,86.90
2019-01-24T18:39:48.790Z,86.75
2019-01-24T18:42:14.742Z,86.51
2019-01-24T18:44:40.543Z,85.92
2019-01-24T18:47:06.771Z,86.22
2019-01-24T18:49:32.868Z,86.25
2019-01-24T18:51:58.897Z,86.28
2019-01-24T18:54:24.726Z,86.16
2019-01-24T18:56:50.654Z,86.17
2019-01-24T18:59:16.562Z,86.21
2019-01-24T19:01:42.675Z,85.93
2019-01-24T19:04:08.502Z,85.97
2019-01-24T19:06:34.360Z,85.77
2019-01-24T19:09:00.192Z,85.26
2019-01-24T19:11:26.007Z,85.28
2019-01-24T19:13:52.086Z,84.98
2019-01-24T19:16:17.907Z,85.26
2019-01-24T19:18:43.971Z,85.22
2019-01-24T19:21:09.924Z,85.13
2019-01-24T19:23:35.732Z,85.47
2019-01-24T19:26:01.556Z,85.44
2019-01-24T19:28:27.415Z,85.22
2019-01-24T19:30:53.538Z,85.63
2019-01-24T19:33:19.466Z,85.95
2019-01-24T19:35:45.305Z,86.69
2019-01-24T19:38:11.413Z,87.32
2019-01-24T19:40:37.252Z,87.42
2019-01-24T19:43:03.192Z,87.10
2019-01-24T19:45:29.106Z,87.33
2019-01-24T19:47:54.921Z,87.18
2019-01-24T19:50:25.629Z,86.57
2019-01-24T19:52:51.572Z,86.97
2019-01-24T19:55:17.502Z,86.85
2019-01-24T19:57:43.753Z,86.67
2019-01-24T20:00:21.728Z,86.77
2019-01-24T20:02:48.030Z,86.63
2019-01-24T20:05:15.584Z,86.20
2019-01-24T20:07:41.498Z,86.46
2019-01-24T20:10:19.022Z,86.62
2019-01-24T20:12:45.182Z,86.46
2019-01-24T20:15:14.708Z,86.56
2019-01-24T20:17:40.702Z,86.55
2019-01-24T20:20:09.889Z,85.79
2019-01-24T20:22:35.931Z,86.04
2019-01-24T20:25:02.146Z,86.23
2019-01-24T20:27:27.976Z,86.11
2019-01-24T20:29:53.789Z,86.29
2019-01-24T20:32:19.637Z,86.40
2019-01-24T20:34:45.438Z,86.28
2019-01-24T20:37:11.294Z,86.03
2019-01-24T20:39:37.398Z,86.20
2019-01-24T20:42:03.373Z,86.19
2019-01-24T20:44:29.497Z,85.67
2019-01-24T20:46:55.327Z,85.87
2019-01-24T20:49:21.148Z,86.65
2019-01-24T20:51:47.257Z,87.36
2019-01-24T20:54:13.062Z,87.27
2019-01-24T20:56:39.052Z,87.04
2019-01-24T20:59:05.094Z,87.17
2019-01-24T21:01:30.912Z,87.26
2019-01-24T21:03:56.775Z,87.22
2019-01-24T21:06:22.584Z,87.62
2019-01-24T21:08:48.691Z,87.45
2019-01-24T21:11:14.533Z,87.82
2019-01-24T21:13:40.359Z,87.84
2019-01-24T21:16:06.592Z,87.46
2019-01-24T21:18:32.397Z,87.25
2019-01-24T21:20:58.247Z,87.55
2019-01-24T21:23:24.073Z,87.62
2019-01-24T21:25:49.903Z,87.46
2019-01-24T21:28:15.851Z,87.58
2019-01-24T21:30:41.643Z,87.50
2019-01-24T21:33:07.602Z,87.50
2019-01-24T21:35:33.525Z,87.20
2019-01-24T21:38:01.895Z,87.09
2019-01-24T21:40:27.932Z,86.72
2019-01-24T21:42:58.948Z,86.70
2019-01-24T21:45:27.293Z,86.19
2019-01-24T21:47:53.248Z,85.67
2019-01-24T21:50:21.473Z,86.02
2019-01-24T21:52:47.347Z,86.59
2019-01-24T21:55:14.016Z,86.17
2019-01-24T21:57:40.162Z,86.27
2019-01-24T22:00:18.574Z,86.25
2019-01-24T22:02:44.676Z,85.88
2019-01-24T22:05:12.321Z,85.59
2019-01-24T22:07:38.281Z,85.29
2019-01-24T22:10:07.915Z,84.84
2019-01-24T22:12:34.038Z,84.58
2019-01-24T22:15:00.242Z,84.53
2019-01-24T22:17:26.347Z,85.17
2019-01-24T22:19:52.441Z,85.67
2019-01-24T22:22:18.269Z,85.55
2019-01-24T22:24:44.077Z,85.48
2019-01-24T22:27:10.024Z,85.68
2019-01-24T22:29:35.875Z,85.43
2019-01-24T22:32:01.721Z,85.29
2019-01-24T22:34:27.647Z,84.63
2019-01-24T22:36:53.455Z,84.08
2019-01-24T22:39:19.292Z,84.34
2019-01-24T22:41:45.188Z,84.45
2019-01-24T22:44:11.460Z,84.40
2019-01-24T22:46:37.334Z,84.21
2019-01-24T22:49:03.362Z,83.93
2019-01-24T22:51:32.369Z,83.58
2019-01-24T22:53:58.205Z,82.57
2019-01-24T22:56:26.782Z,82.13
2019-01-24T22:58:53.020Z,82.39
2019-01-24T23:01:22.938Z,82.62
2019-01-24T23:03:49.002Z,82.70
2019-01-24T23:06:15.146Z,82.97
2019-01-24T23:08:41.452Z,83.32
2019-01-24T23:11:07.615Z,83.33
2019-01-24T23:13:33.462Z,82.88
2019-01-24T23:15:59.269Z,83.20
2019-01-24T23:18:28.378Z,82.72
2019-01-24T23:20:54.217Z,82.33
2019-01-24T23:23:24.558Z,82.45
2019-01-24T23:25:50.686Z,82.76
2019-01-24T23:28:18.172Z,82.68
2019-01-24T23:30:44.020Z,82.83
2019-01-24T23:33:12.704Z,82.63
2019-01-24T23:35:38.526Z,82.67
2019-01-24T23:38:04.596Z,82.04
2019-01-24T23:40:30.654Z,81.93
2019-01-24T23:42:56.668Z,82.00
2019-01-24T23:45:25.796Z,83.05
2019-01-24T23:47:51.907Z,83.22
2019-01-24T23:50:21.045Z,83.06
2019-01-24T23:52:47.142Z,83.14
2019-01-24T23:55:16.017Z,82.89
2019-01-24T23:57:41.818Z,82.39
